This is the latest recevied weather packets stored in our database for station/object KE5SXT-2. If no packets are shown the sender has not sent any weather packets the latest 10 day(s).
| Time | Temp. | Humidity | Pressure | Rain* | Wind** | Luminosity | Snow |
|---|---|---|---|---|---|---|---|
| 1777486821 | 26.67° C | 45% | 1013.8 hPa | 0 mm | - | - | - |
| 1777483221 | 25° C | 51% | 1014.7 hPa | 0 mm | - | - | - |
| 1777481421 | 24.44° C | 53% | 1014.6 hPa | 0 mm | - | - | - |
| 1777474245 | 21.67° C | 55% | 1015.2 hPa | 0 mm | - | - | - |
| 1777473020 | 21.11° C | 55% | 1015.1 hPa | 0 mm | - | - | - |
| 1777468845 | 21.67° C | 58% | 1015.2 hPa | 0 mm | - | - | - |
| 1777468221 | 22.22° C | 59% | 1014.9 hPa | 0 mm | - | - | - |
| 1777461022 | 22.22° C | 38% | 1013.6 hPa | 0 mm | - | - | - |
| 1777456822 | 22.78° C | 30% | 1012.9 hPa | 0 mm | - | - | - |
| 1777455022 | 22.78° C | 25% | 1012.8 hPa | 0 mm | - | - | - |
| 1777454422 | 23.33° C | 23% | 1012.8 hPa | 0 mm | - | - | - |
| 1777452622 | 23.33° C | 18% | 1012.7 hPa | 0 mm | - | - | - |
| 1777446621 | 25° C | 15% | 1013.7 hPa | 0 mm | - | - | - |
| 1777446021 | 25.56° C | 14% | 1013.9 hPa | 0 mm | - | - | - |
| 1777443621 | 26.11° C | 12% | 1013.1 hPa | 0 mm | - | - | - |
| 1777442421 | 26.11° C | 11% | 1013.7 hPa | 0 mm | - | - | - |
| 1777441222 | 27.22° C | 10% | 1013.3 hPa | 0 mm | - | - | - |
| 1777438220 | 28.33° C | 9% | 1013.3 hPa | 0 mm | - | - | - |
| 1777436446 | 28.89° C | 8% | 1013.3 hPa | 0 mm | - | - | - |
| 1777433422 | 30° C | 7% | 1012.8 hPa | 0 mm | - | - | - |
| 1777426222 | 33.89° C | 7% | 1010.9 hPa | 0 mm | - | - | - |
| 1777422022 | 35° C | 8% | 1010.4 hPa | 0 mm | - | - | - |
| 1777421472 | 35° C | 7% | 1010.4 hPa | 0 mm | - | - | - |
| 1777418422 | 35.56° C | 7% | 1010.2 hPa | 0 mm | - | - | - |
| 1777412421 | 36.11° C | 7% | 1011.3 hPa | 0 mm | - | - | - |
* Rain latest hour (hover to see other rain measurements)
** Current wind speed in m/s (hover to see current wind gust speed)